Time;durP1;ratioP1;P1;durP2;ratioP2;P2;SDS_P1;SDS_P2;PMS_P1;PMS_P2;Temp;Humidity;BMP_temperature;BMP_pressure;BME280_temperature;BME280_humidity;BME280_pressure;Samples;Min_cycle;Max_cycle;Signal;HPM_P1;HPM_P2
2022/05/17 00:01:33;;;;;;;;;14.00;12.60;;;;;24.33;31.25;99396.97;5041246;28;8864;-75
2022/05/17 00:04:02;;;;;;;;;11.80;11.40;;;;;24.40;31.21;99400.13;5069316;28;8844;-77
2022/05/17 00:06:31;;;;;;;;;12.60;11.40;;;;;24.45;31.35;99390.91;5059832;28;8897;-78
2022/05/17 00:09:00;;;;;;;;;15.80;13.60;;;;;24.42;31.45;99399.06;5049795;28;8917;-77
2022/05/17 00:11:29;;;;;;;;;13.80;13.80;;;;;24.44;31.35;99396.31;5048567;28;9778;-76
2022/05/17 00:13:59;;;;;;;;;15.20;14.20;;;;;24.46;31.71;99389.06;5048143;28;8839;-75
2022/05/17 00:16:28;;;;;;;;;14.75;13.00;;;;;24.46;31.97;99400.63;5048027;28;9742;-75
2022/05/17 00:18:56;;;;;;;;;15.25;15.25;;;;;24.51;31.98;99401.22;5029733;28;9577;-78
2022/05/17 00:21:25;;;;;;;;;13.25;13.00;;;;;24.55;32.03;99396.56;5048627;28;8842;-74
2022/05/17 00:23:54;;;;;;;;;14.00;14.00;;;;;24.59;31.97;99399.91;5047528;28;8870;-76
2022/05/17 00:26:23;;;;;;;;;15.00;14.75;;;;;24.47;32.14;99385.47;5048575;28;9020;-77
2022/05/17 00:28:52;;;;;;;;;12.25;12.25;;;;;24.39;31.97;99391.28;5047252;28;8854;-76
2022/05/17 00:31:22;;;;;;;;;12.25;10.75;;;;;24.40;31.70;99386.78;5031103;28;8843;-75
2022/05/17 00:33:50;;;;;;;;;11.00;11.00;;;;;24.35;31.03;99386.19;5048735;28;8835;-76
2022/05/17 00:36:23;;;;;;;;;15.00;14.00;;;;;24.25;31.67;99378.78;5050456;28;8877;-77
2022/05/17 00:38:52;;;;;;;;;11.50;10.25;;;;;24.28;31.33;99380.41;5068540;28;8848;-78
2022/05/17 00:41:21;;;;;;;;;13.25;13.25;;;;;24.21;31.95;99377.22;5067484;28;8958;-78
2022/05/17 00:46:47;;;;;;;;;13.25;12.00;;;;;23.99;31.26;99374.13;5067765;28;8876;-78
2022/05/17 00:49:23;;;;;;;;;14.50;13.25;;;;;23.88;31.57;99372.09;5068332;28;8840;-77
2022/05/17 00:51:57;;;;;;;;;11.75;10.50;;;;;23.90;31.27;99373.72;5067404;28;8848;-75
2022/05/17 00:54:28;;;;;;;;;12.75;12.50;;;;;23.97;31.26;99368.03;5084092;28;8883;-78
2022/05/17 00:57:04;;;;;;;;;10.75;10.75;;;;;23.93;31.22;99362.00;5067126;28;8928;-76
2022/05/17 00:59:35;;;;;;;;;14.25;14.25;;;;;23.92;31.29;99368.31;5050894;28;8886;-78
2022/05/17 01:02:07;;;;;;;;;12.50;12.50;;;;;23.90;31.52;99368.38;5053200;28;8905;-77
2022/05/17 01:04:36;;;;;;;;;11.25;11.25;;;;;23.96;31.45;99364.50;5037092;28;8978;-77
2022/05/17 01:07:09;;;;;;;;;12.00;11.40;;;;;23.97;31.92;99366.25;5013138;28;8888;-75
2022/05/17 01:09:37;;;;;;;;;13.00;13.00;;;;;23.97;31.61;99358.25;5048638;28;8838;-77
2022/05/17 01:12:07;;;;;;;;;12.50;12.25;;;;;23.94;32.29;99366.41;5047576;28;8986;-67
2022/05/17 01:17:23;;;;;;;;;12.40;12.40;;;;;23.87;32.13;99354.38;5047647;28;8897;-69
2022/05/17 01:19:52;;;;;;;;;15.75;14.75;;;;;23.88;32.40;99356.97;5047794;28;8847;-77
2022/05/17 01:22:22;;;;;;;;;13.00;13.00;;;;;23.93;31.94;99354.91;5050821;28;8968;-77
2022/05/17 01:24:52;;;;;;;;;13.20;12.60;;;;;23.86;32.28;99356.19;5051698;28;8869;-77
2022/05/17 01:27:28;;;;;;;;;10.80;10.80;;;;;23.86;32.38;99347.38;5067628;28;8859;-76
2022/05/17 01:29:57;;;;;;;;;11.60;11.60;;;;;23.77;32.30;99350.53;5051657;28;8850;-75
2022/05/17 01:32:25;;;;;;;;;12.50;11.50;;;;;23.87;32.13;99355.25;5067148;28;9035;-73
2022/05/17 01:34:54;;;;;;;;;13.00;13.00;;;;;23.88;31.97;99343.66;5062988;28;8948;-74
2022/05/17 01:37:24;;;;;;;;;11.00;11.00;;;;;23.77;32.09;99340.72;5070242;28;8870;-74
2022/05/17 01:39:52;;;;;;;;;11.00;11.00;;;;;23.64;32.07;99340.56;5071478;28;8828;-75
2022/05/17 01:42:21;;;;;;;;;10.80;10.40;;;;;23.50;32.20;99340.53;5070742;28;8929;-74
2022/05/17 01:44:50;;;;;;;;;15.25;11.50;;;;;23.42;32.40;99330.31;5071318;28;8852;-75
2022/05/17 01:47:18;;;;;;;;;10.40;10.40;;;;;23.42;32.26;99332.09;5070198;28;8867;-76
2022/05/17 01:49:47;;;;;;;;;10.20;10.20;;;;;23.43;32.29;99334.69;5067525;28;8959;-75
2022/05/17 01:52:15;;;;;;;;;11.60;11.60;;;;;23.42;32.67;99324.13;5049979;28;8842;-72
2022/05/17 01:54:45;;;;;;;;;9.60;9.60;;;;;23.43;32.48;99323.19;5051667;28;8991;-74
2022/05/17 01:57:13;;;;;;;;;12.20;12.20;;;;;23.41;32.52;99323.28;5051280;28;8973;-74
2022/05/17 01:59:42;;;;;;;;;11.40;11.40;;;;;23.46;32.50;99323.88;5050889;28;8851;-76
2022/05/17 02:02:12;;;;;;;;;12.60;11.00;;;;;23.52;32.36;99323.50;5051258;28;8854;-73
2022/05/17 02:04:42;;;;;;;;;10.00;9.00;;;;;23.49;32.74;99323.69;5051058;28;8961;-74
2022/05/17 02:07:11;;;;;;;;;12.20;11.00;;;;;23.61;32.57;99324.81;5051412;28;8823;-75
2022/05/17 02:09:39;;;;;;;;;12.20;10.80;;;;;23.71;32.29;99317.97;5050798;28;9518;-74
2022/05/17 02:12:11;;;;;;;;;11.50;11.50;;;;;23.51;32.53;99318.28;5032082;28;8834;-74
2022/05/17 02:14:40;;;;;;;;;11.50;10.50;;;;;23.51;32.74;99312.94;5049696;28;8929;-75
2022/05/17 02:17:08;;;;;;;;;12.20;11.00;;;;;23.49;32.55;99312.19;5049314;28;8839;-75
2022/05/17 02:19:36;;;;;;;;;10.00;10.00;;;;;23.55;32.33;99312.69;5050906;28;8901;-74
2022/05/17 02:22:05;;;;;;;;;11.40;9.00;;;;;23.43;32.76;99310.72;5066164;28;8973;-74
2022/05/17 02:24:34;;;;;;;;;11.00;11.00;;;;;23.46;32.69;99312.34;5049843;28;8858;-74
2022/05/17 02:27:03;;;;;;;;;13.20;11.80;;;;;23.52;32.45;99309.34;5033125;28;8928;-75
2022/05/17 02:29:33;;;;;;;;;12.20;12.20;;;;;23.53;32.33;99309.28;5051022;28;8927;-74
2022/05/17 02:32:01;;;;;;;;;10.80;9.20;;;;;23.48;32.31;99310.47;5048882;28;9553;-74
2022/05/17 02:34:31;;;;;;;;;11.60;10.00;;;;;23.46;32.39;99310.56;5051237;28;8985;-73
2022/05/17 02:37:00;;;;;;;;;12.60;10.40;;;;;23.52;32.30;99307.53;5051079;28;8904;-74
2022/05/17 02:39:28;;;;;;;;;8.60;8.60;;;;;23.57;32.12;99312.59;5049629;28;8842;-74
2022/05/17 02:41:57;;;;;;;;;10.40;10.00;;;;;23.59;32.14;99315.16;5050393;28;8831;-75
2022/05/17 02:44:26;;;;;;;;;12.00;12.00;;;;;23.65;31.96;99306.84;5050690;28;8846;-74
2022/05/17 02:46:57;;;;;;;;;9.60;9.60;;;;;23.65;31.78;99306.84;5047532;28;8870;-74
2022/05/17 02:49:25;;;;;;;;;9.80;9.80;;;;;23.63;31.77;99314.91;5034683;28;8957;-76
2022/05/17 02:51:54;;;;;;;;;14.40;10.80;;;;;23.63;31.58;99304.28;5067614;28;8899;-76
2022/05/17 02:54:23;;;;;;;;;11.40;9.20;;;;;23.57;31.50;99309.94;5067657;28;8852;-74
2022/05/17 02:56:51;;;;;;;;;11.40;11.40;;;;;23.60;31.35;99291.13;5067784;28;9565;-75
2022/05/17 02:59:20;;;;;;;;;10.80;9.40;;;;;23.60;31.51;99292.94;5051100;28;8837;-75
2022/05/17 03:01:49;;;;;;;;;9.20;8.80;;;;;23.54;31.53;99300.31;5051097;28;9006;-75
2022/05/17 03:04:19;;;;;;;;;8.80;8.80;;;;;23.61;31.36;99292.84;5067759;28;8848;-74
2022/05/17 03:06:48;;;;;;;;;9.40;9.40;;;;;23.69;31.18;99295.06;5066761;28;8839;-73
2022/05/17 03:09:17;;;;;;;;;10.60;10.60;;;;;23.64;31.30;99294.47;5034148;28;8978;-72
2022/05/17 03:11:45;;;;;;;;;11.60;10.00;;;;;23.74;31.19;99299.16;5067486;28;8871;-75
2022/05/17 03:14:17;;;;;;;;;9.20;9.20;;;;;23.86;31.11;99302.09;5066817;28;9714;-75
2022/05/17 03:16:46;;;;;;;;;10.00;10.00;;;;;23.95;30.98;99304.22;5067409;28;8876;-74
2022/05/17 03:19:14;;;;;;;;;11.40;8.20;;;;;23.97;30.74;99310.31;5069753;28;8899;-75
2022/05/17 03:21:44;;;;;;;;;13.20;13.20;;;;;24.03;30.75;99307.25;5033765;28;9652;-74
2022/05/17 03:24:13;;;;;;;;;12.60;12.40;;;;;24.13;30.69;99304.91;5069413;28;8852;-77
2022/05/17 03:27:02;;;;;;;;;11.40;9.20;;;;;24.10;30.61;99303.28;5040772;28;8851;-74
2022/05/17 03:29:31;;;;;;;;;12.00;12.00;;;;;24.19;30.77;99309.00;5069313;28;8982;-74
2022/05/17 03:32:00;;;;;;;;;13.60;11.00;;;;;24.23;30.48;99305.19;5046779;28;8864;-74
2022/05/17 03:34:30;;;;;;;;;12.40;12.40;;;;;24.29;30.56;99303.03;5046759;28;8937;-76
2022/05/17 03:37:01;;;;;;;;;12.20;12.20;;;;;24.36;30.53;99308.81;5046872;28;8992;-74
2022/05/17 03:39:30;;;;;;;;;13.00;11.50;;;;;24.44;30.45;99311.00;4981219;28;9005;-75
2022/05/17 03:41:59;;;;;;;;;8.80;8.80;;;;;24.48;30.48;99318.75;5046561;28;8949;-74
2022/05/17 03:44:28;;;;;;;;;15.50;12.50;;;;;24.48;31.30;99323.19;5012931;28;8856;-74
2022/05/17 03:46:57;;;;;;;;;14.75;14.75;;;;;24.57;31.24;99327.16;5029775;28;8883;-76
2022/05/17 03:49:25;;;;;;;;;14.00;14.00;;;;;24.65;31.48;99327.50;5029868;28;8886;-75
2022/05/17 03:51:53;;;;;;;;;14.00;14.00;;;;;24.73;31.28;99335.91;5013602;28;8918;-76
2022/05/17 03:54:25;;;;;;;;;12.00;11.75;;;;;24.81;31.60;99332.75;5029711;28;8951;-75
2022/05/17 03:56:54;;;;;;;;;13.00;12.40;;;;;24.88;31.73;99326.94;5045128;28;8994;-73
2022/05/17 03:59:23;;;;;;;;;11.75;11.75;;;;;24.96;31.77;99330.94;5046273;28;8982;-74
2022/05/17 04:01:51;;;;;;;;;13.25;13.25;;;;;25.02;31.84;99336.72;4981277;28;8848;-76
2022/05/17 04:04:20;;;;;;;;;15.50;15.50;;;;;25.08;32.00;99339.03;5082913;28;8895;-74
2022/05/17 04:06:48;;;;;;;;;25.50;24.25;;;;;25.16;32.52;99338.53;5068837;28;8859;-75
2022/05/17 04:09:18;;;;;;;;;21.00;21.00;;;;;25.15;32.74;99335.97;5051515;28;8842;-74
2022/05/17 04:11:47;;;;;;;;;29.50;25.00;;;;;25.07;32.85;99341.78;5030133;28;8889;-76
2022/05/17 04:14:16;;;;;;;;;17.50;16.50;;;;;25.10;32.96;99338.91;5047030;28;9573;-75
2022/05/17 04:16:44;;;;;;;;;17.75;17.75;;;;;25.15;33.30;99342.16;5048324;28;8855;-76
2022/05/17 04:19:15;;;;;;;;;16.75;16.50;;;;;25.24;33.31;99346.94;5058696;28;9033;-76
2022/05/17 04:21:47;;;;;;;;;21.50;18.50;;;;;25.33;33.31;99348.16;5050214;28;8859;-75
2022/05/17 04:24:16;;;;;;;;;22.00;21.50;;;;;25.43;33.53;99340.41;5016877;28;8908;-74
2022/05/17 04:26:44;;;;;;;;;43.75;36.25;;;;;25.53;34.06;99344.16;5049824;28;8847;-75
2022/05/17 04:29:14;;;;;;;;;33.25;29.00;;;;;25.63;34.40;99342.63;5049567;28;8862;-74
2022/05/17 04:31:43;;;;;;;;;21.00;18.75;;;;;25.73;33.90;99341.97;5051184;28;8832;-76
2022/05/17 04:34:12;;;;;;;;;20.50;19.00;;;;;25.82;33.52;99349.38;5046758;28;8881;-75
2022/05/17 04:36:41;;;;;;;;;15.25;14.75;;;;;25.91;33.47;99351.44;5046371;28;8889;-76
2022/05/17 04:39:09;;;;;;;;;49.25;41.00;;;;;25.98;33.65;99352.78;5046835;28;8871;-76
2022/05/17 04:41:38;;;;;;;;;24.00;23.25;;;;;25.10;34.02;99350.47;5061753;28;9009;-77
2022/05/17 04:44:06;;;;;;;;;19.00;18.75;;;;;24.31;36.25;99364.22;5053914;28;9712;-79
2022/05/17 04:46:36;;;;;;;;;22.00;20.25;;;;;23.71;37.20;99368.56;5052155;28;8868;-76
2022/05/17 04:49:07;;;;;;;;;26.00;24.75;;;;;23.53;38.79;99367.84;5034923;28;8852;-76
2022/05/17 04:51:36;;;;;;;;;20.00;18.50;;;;;23.62;36.75;99366.44;5053723;28;8955;-76
2022/05/17 04:54:05;;;;;;;;;16.75;16.50;;;;;23.96;35.63;99355.66;5053047;28;8862;-75
2022/05/17 04:56:34;;;;;;;;;21.00;20.00;;;;;24.29;35.97;99363.44;5028852;28;8860;-75
2022/05/17 04:59:03;;;;;;;;;22.50;21.75;;;;;24.60;37.06;99358.97;5062911;28;9596;-76
2022/05/17 05:01:32;;;;;;;;;20.75;19.25;;;;;24.86;35.23;99352.84;5047381;28;8981;-76
2022/05/17 05:04:03;;;;;;;;;18.75;17.25;;;;;25.04;34.31;99347.31;5058212;28;8862;-76
2022/05/17 05:06:32;;;;;;;;;17.25;17.25;;;;;25.24;34.33;99348.75;5046621;28;8908;-76
2022/05/17 05:09:01;;;;;;;;;20.67;17.00;;;;;25.35;33.43;99353.38;5046716;28;8839;-77
2022/05/17 05:11:29;;;;;;;;;19.25;19.25;;;;;25.39;33.13;99354.91;5046169;28;8863;-75
2022/05/17 05:13:58;;;;;;;;;20.00;20.00;;;;;25.20;33.86;99360.50;5045053;28;8876;-79
2022/05/17 05:16:26;;;;;;;;;19.50;18.75;;;;;24.44;36.06;99367.00;5046785;28;8863;-79
2022/05/17 05:18:55;;;;;;;;;22.50;22.00;;;;;24.57;36.65;99373.31;5044679;28;8886;-78
2022/05/17 05:21:25;;;;;;;;;22.25;21.75;;;;;24.46;37.13;99376.63;5044127;28;8843;-77
2022/05/17 05:23:54;;;;;;;;;21.50;21.50;;;;;23.84;38.60;99382.06;5046950;28;8869;-78
2022/05/17 05:26:22;;;;;;;;;22.50;21.25;;;;;23.31;40.04;99384.13;5047311;28;8873;-69
2022/05/17 05:28:51;;;;;;;;;25.25;24.50;;;;;23.10;40.50;99388.84;5046755;28;8908;-73
2022/05/17 05:31:19;;;;;;;;;26.50;25.50;;;;;22.94;41.18;99387.94;5057312;28;8855;-71
2022/05/17 05:33:48;;;;;;;;;26.50;24.75;;;;;23.03;41.19;99383.91;5061376;28;8846;-70
2022/05/17 05:36:17;;;;;;;;;25.50;25.25;;;;;23.31;41.15;99386.81;5012073;28;8846;-75
2022/05/17 05:38:47;;;;;;;;;26.50;23.75;;;;;23.54;40.39;99393.50;5046564;28;8866;-74
2022/05/17 05:41:16;;;;;;;;;30.00;27.25;;;;;23.82;40.08;99386.63;5047073;28;8859;-71
2022/05/17 05:43:44;;;;;;;;;26.00;22.00;;;;;23.89;40.08;99390.66;4995504;28;8850;-71
2022/05/17 05:46:14;;;;;;;;;24.25;23.75;;;;;24.04;39.28;99390.69;5063769;28;8844;-69
2022/05/17 05:48:43;;;;;;;;;24.50;22.00;;;;;24.21;38.78;99392.38;5067716;28;8844;-73
2022/05/17 05:51:11;;;;;;;;;24.50;22.50;;;;;24.53;37.48;99393.13;5031218;28;8910;-71
2022/05/17 05:53:40;;;;;;;;;22.50;21.25;;;;;24.78;37.54;99383.63;5067715;28;8867;-71
2022/05/17 05:56:11;;;;;;;;;24.00;21.50;;;;;24.88;36.55;99388.28;5062786;28;8873;-72
2022/05/17 05:58:42;;;;;;;;;23.25;21.50;;;;;24.83;36.58;99387.72;5057027;28;8899;-72
2022/05/17 06:01:11;;;;;;;;;23.25;22.25;;;;;25.01;36.51;99396.41;5067444;28;8908;-71
2022/05/17 06:03:39;;;;;;;;;20.50;20.25;;;;;25.19;35.63;99385.50;5067118;28;8840;-72
2022/05/17 06:06:09;;;;;;;;;24.50;21.50;;;;;25.32;36.10;99383.81;5043009;28;9620;-72
2022/05/17 06:08:38;;;;;;;;;18.25;17.25;;;;;25.53;36.00;99378.88;5031184;28;8891;-72
2022/05/17 06:11:06;;;;;;;;;25.00;24.00;;;;;25.61;35.75;99383.72;5046027;28;8859;-72
2022/05/17 06:13:37;;;;;;;;;23.00;20.50;;;;;25.85;35.85;99389.25;5047369;28;8944;-73
2022/05/17 06:16:05;;;;;;;;;22.00;21.50;;;;;25.92;35.65;99384.38;5046581;28;10778;-70
2022/05/17 06:18:34;;;;;;;;;23.50;22.00;;;;;26.02;35.39;99378.34;5044977;28;8864;-75
2022/05/17 06:21:04;;;;;;;;;29.25;26.25;;;;;26.16;34.61;99380.09;5047997;28;8816;-71
2022/05/17 06:23:33;;;;;;;;;21.25;20.50;;;;;26.06;35.35;99385.19;5046133;28;8852;-71
2022/05/17 06:26:01;;;;;;;;;24.50;24.50;;;;;26.09;35.13;99380.59;5030251;28;8859;-71
2022/05/17 06:28:31;;;;;;;;;22.50;22.00;;;;;26.30;35.23;99381.81;5047400;28;8839;-71
2022/05/17 06:31:01;;;;;;;;;25.25;25.25;;;;;26.21;36.00;99388.63;5046776;28;8864;-70
2022/05/17 06:33:29;;;;;;;;;15.50;15.25;;;;;26.43;35.59;99396.06;5046254;28;8996;-73
2022/05/17 06:35:58;;;;;;;;;24.25;23.75;;;;;26.63;35.28;99394.72;5030349;28;8965;-73
2022/05/17 06:38:26;;;;;;;;;16.75;16.75;;;;;26.77;35.01;99384.88;5046227;28;8873;-72
2022/05/17 06:40:56;;;;;;;;;19.75;19.25;;;;;26.87;35.24;99390.44;4981080;28;9072;-72
2022/05/17 06:43:24;;;;;;;;;26.75;23.50;;;;;26.99;35.10;99387.75;5052102;28;8882;-71
2022/05/17 06:45:53;;;;;;;;;20.50;18.00;;;;;27.10;34.86;99386.94;5049871;28;8858;-73
2022/05/17 06:48:23;;;;;;;;;20.75;20.75;;;;;27.22;34.67;99391.44;5049229;28;8865;-75
2022/05/17 06:50:52;;;;;;;;;24.00;23.50;;;;;27.35;34.16;99394.13;5060635;28;8852;-71
2022/05/17 06:53:20;;;;;;;;;21.50;19.25;;;;;27.16;34.26;99396.38;5068742;28;9014;-71
2022/05/17 06:55:48;;;;;;;;;24.75;24.00;;;;;26.90;35.18;99398.22;5049244;28;9640;-70
2022/05/17 06:58:17;;;;;;;;;19.25;19.25;;;;;27.04;34.96;99396.28;5049809;28;8866;-72
2022/05/17 07:00:46;;;;;;;;;16.50;16.50;;;;;27.18;35.37;99391.75;5015326;28;8843;-71
2022/05/17 07:03:14;;;;;;;;;14.50;13.75;;;;;27.28;35.54;99391.97;5057617;28;8864;-72
2022/05/17 07:05:45;;;;;;;;;26.50;25.00;;;;;27.56;35.15;99388.13;5069047;28;8832;-71
2022/05/17 07:08:13;;;;;;;;;26.50;24.00;;;;;27.22;35.67;99387.88;5060844;28;8855;-71
2022/05/17 07:13:28;;;;;;;;;25.25;22.50;;;;;27.39;36.00;99390.25;5049314;28;8863;-71
2022/05/17 07:15:56;;;;;;;;;22.00;21.50;;;;;27.26;35.89;99394.78;5058198;28;8848;-73
2022/05/17 07:18:28;;;;;;;;;25.00;24.50;;;;;27.67;35.51;99392.72;5059059;28;8881;-74
2022/05/17 07:20:59;;;;;;;;;27.75;27.00;;;;;27.30;35.98;99388.25;5064677;28;8842;-72
2022/05/17 07:23:28;;;;;;;;;25.50;25.00;;;;;27.49;36.04;99392.25;5049003;28;8847;-73
2022/05/17 07:25:56;;;;;;;;;21.50;21.50;;;;;27.75;36.28;99390.31;5049356;28;8927;-70
2022/05/17 07:28:25;;;;;;;;;28.75;27.25;;;;;27.93;36.20;99391.66;5049382;28;8992;-72
2022/05/17 07:30:54;;;;;;;;;28.25;27.75;;;;;27.95;36.19;99386.19;5049319;28;8989;-71
2022/05/17 07:33:22;;;;;;;;;29.75;28.75;;;;;27.29;38.16;99389.19;5061799;28;8979;-70
2022/05/17 07:35:53;;;;;;;;;26.25;25.75;;;;;27.33;38.44;99382.63;5049694;28;8822;-72
2022/05/17 07:38:23;;;;;;;;;30.50;30.25;;;;;26.79;40.55;99390.97;5043227;28;8859;-69
2022/05/17 07:40:51;;;;;;;;;33.00;30.50;;;;;26.48;41.23;99398.41;5062326;28;8830;-70
2022/05/17 07:43:20;;;;;;;;;31.25;29.25;;;;;26.70;41.26;99387.09;5062559;28;8972;-71
2022/05/17 07:45:50;;;;;;;;;33.00;30.25;;;;;26.87;40.78;99388.59;5057060;28;8859;-73
2022/05/17 07:48:20;;;;;;;;;30.00;29.00;;;;;26.62;41.66;99397.50;5054778;28;8856;-69
2022/05/17 07:50:50;;;;;;;;;33.50;30.75;;;;;26.92;40.69;99381.09;5055393;28;8866;-66
2022/05/17 07:53:20;;;;;;;;;28.00;25.25;;;;;27.09;40.79;99384.38;5015966;28;8852;-67
2022/05/17 07:55:51;;;;;;;;;31.75;30.75;;;;;26.93;41.42;99388.16;5067746;28;8848;-65
2022/05/17 07:58:20;;;;;;;;;24.50;23.25;;;;;26.73;41.76;99381.56;5067942;28;8852;-70
2022/05/17 08:00:50;;;;;;;;;30.25;26.50;;;;;26.82;41.83;99380.91;5046720;28;8968;-69
2022/05/17 08:03:21;;;;;;;;;30.25;30.00;;;;;26.68;42.88;99383.69;5068147;28;8864;-69
2022/05/17 08:05:52;;;;;;;;;27.25;27.00;;;;;27.03;42.00;99377.66;5038224;28;8861;-69
2022/05/17 08:08:20;;;;;;;;;31.00;29.50;;;;;26.91;42.60;99383.88;5055519;28;8852;-71
2022/05/17 08:10:51;;;;;;;;;28.25;27.25;;;;;26.73;43.09;99378.88;5032995;28;8864;-71
2022/05/17 08:13:23;;;;;;;;;27.50;27.50;;;;;27.01;42.88;99377.78;5068289;28;8872;-70
2022/05/17 08:15:51;;;;;;;;;30.00;28.25;;;;;26.94;43.00;99383.69;5032424;28;8825;-70
2022/05/17 08:18:20;;;;;;;;;33.25;31.25;;;;;26.76;43.31;99386.66;5060522;28;8862;-68
2022/05/17 08:20:50;;;;;;;;;30.00;28.25;;;;;26.97;42.74;99378.94;5047331;28;8847;-71
2022/05/17 08:23:19;;;;;;;;;32.25;30.00;;;;;26.86;43.78;99370.81;5062774;28;9609;-71
2022/05/17 08:28:35;;;;;;;;;35.75;30.50;;;;;26.86;43.67;99364.63;5046942;28;8856;-73
2022/05/17 08:31:03;;;;;;;;;32.75;31.75;;;;;26.98;43.31;99371.78;5066472;28;8848;-72
2022/05/17 08:33:31;;;;;;;;;30.25;30.00;;;;;27.20;43.19;99371.94;5047682;28;8868;-73
2022/05/17 08:36:02;;;;;;;;;31.25;30.00;;;;;27.21;42.97;99365.63;5032427;28;8863;-74
2022/05/17 08:38:34;;;;;;;;;30.75;30.00;;;;;27.01;43.92;99363.50;5062405;28;8870;-72
2022/05/17 08:41:26;;;;;;;;;29.50;29.50;;;;;27.37;42.74;99368.09;5066318;28;8883;-69
2022/05/17 08:43:59;;;;;;;;;27.25;26.00;;;;;27.33;42.97;99363.03;5067845;28;8876;-71
2022/05/17 08:46:59;;;;;;;;;31.00;30.25;;;;;27.63;42.24;99367.13;5061308;28;8866;-76
2022/05/17 08:49:56;;;;;;;;;34.50;31.50;;;;;27.16;43.73;99377.63;5047470;28;8873;-79
2022/05/17 08:52:27;;;;;;;;;31.00;29.25;;;;;26.45;45.14;99375.41;5030395;28;8874;-71
2022/05/17 08:54:58;;;;;;;;;30.00;30.00;;;;;26.14;45.78;99368.63;5049890;28;8856;-73
2022/05/17 08:57:31;;;;;;;;;34.75;31.75;;;;;26.33;45.91;99370.03;5067896;28;8844;-80
2022/05/17 09:00:07;;;;;;;;;29.50;28.75;;;;;26.59;45.59;99365.56;5068404;28;8967;-76
2022/05/17 09:02:42;;;;;;;;;29.75;28.50;;;;;26.63;45.57;99365.28;5062927;28;9658;-76
2022/05/17 09:05:23;;;;;;;;;32.50;31.00;;;;;26.59;45.46;99376.28;5049577;28;8846;-75
2022/05/17 09:08:01;;;;;;;;;16.50;14.75;;;;;26.37;45.89;99371.53;5082958;28;8840;-81
2022/05/17 09:10:36;;;;;;;;;33.25;31.25;;;;;26.66;45.77;99368.72;5050481;28;8966;-79
2022/05/17 09:13:12;;;;;;;;;34.25;31.00;;;;;26.43;45.41;99372.00;5060972;28;8856;-79
2022/05/17 09:15:41;;;;;;;;;30.25;30.00;;;;;26.62;45.78;99371.59;5061675;28;8958;-79
2022/05/17 09:18:14;;;;;;;;;33.50;31.75;;;;;26.93;44.68;99372.09;5047901;28;8867;-80
2022/05/17 09:20:44;;;;;;;;;32.75;30.50;;;;;26.42;46.22;99372.09;5038970;28;8887;-77
2022/05/17 09:23:13;;;;;;;;;36.00;33.00;;;;;25.93;47.74;99378.09;5045638;28;9695;-73
2022/05/17 09:25:48;;;;;;;;;34.00;30.75;;;;;25.70;48.44;99383.13;5064133;28;8835;-73
2022/05/17 09:28:22;;;;;;;;;33.00;30.25;;;;;25.79;48.87;99373.66;5046118;28;8952;-71
2022/05/17 09:31:11;;;;;;;;;28.50;27.75;;;;;25.60;49.38;99366.00;5066873;28;8850;-76
2022/05/17 09:33:42;;;;;;;;;31.75;30.75;;;;;26.05;47.74;99361.25;5050838;28;8888;-72
2022/05/17 09:36:18;;;;;;;;;30.75;29.25;;;;;26.29;47.74;99377.41;5047406;28;8855;-71
2022/05/17 09:38:49;;;;;;;;;31.00;28.00;;;;;25.86;47.88;99361.59;5043962;28;8871;-69
2022/05/17 09:41:23;;;;;;;;;29.25;27.75;;;;;25.65;48.53;99367.41;5044862;28;8844;-70
2022/05/17 09:43:55;;;;;;;;;29.75;27.50;;;;;25.85;48.36;99368.75;5048307;28;8842;-69
2022/05/17 09:46:34;;;;;;;;;28.33;28.33;;;;;25.95;48.05;99368.16;5048056;28;8855;-70
2022/05/17 09:54:48;;;;;;;;;26.25;26.25;;;;;25.79;47.85;99352.28;5048294;28;8855;-69
2022/05/17 09:57:21;;;;;;;;;34.25;30.75;;;;;26.02;47.33;99358.78;5017927;28;8826;-70
2022/05/17 09:59:53;;;;;;;;;29.25;29.25;;;;;26.37;46.78;99350.16;5064149;28;8874;-72
2022/05/17 10:02:41;;;;;;;;;29.00;28.75;;;;;26.04;47.26;99336.31;5048972;28;8860;-71
2022/05/17 10:05:20;;;;;;;;;31.00;30.00;;;;;26.33;47.52;99338.81;5058987;28;8851;-67
2022/05/17 10:07:52;;;;;;;;;30.50;29.75;;;;;26.02;47.31;99342.75;5050604;28;8870;-71
2022/05/17 10:10:26;;;;;;;;;29.50;28.75;;;;;25.55;47.64;99330.72;5057492;28;8993;-67
2022/05/17 10:13:00;;;;;;;;;32.75;31.50;;;;;25.50;48.33;99339.03;5056716;28;8854;-72
2022/05/17 10:15:32;;;;;;;;;26.75;24.50;;;;;25.85;47.17;99330.50;5049896;28;9683;-70
2022/05/17 10:18:10;;;;;;;;;28.50;27.50;;;;;26.04;46.16;99322.97;5057077;28;8874;-71
2022/05/17 10:20:45;;;;;;;;;31.00;29.75;;;;;25.86;46.31;99335.72;5068230;28;9733;-71
2022/05/17 10:23:25;;;;;;;;;32.25;30.50;;;;;25.70;47.01;99342.22;5060307;28;8889;-73
2022/05/17 10:26:00;;;;;;;;;31.25;30.75;;;;;25.72;47.14;99340.28;5031499;28;8874;-73
2022/05/17 10:28:39;;;;;;;;;31.50;30.25;;;;;25.51;48.89;99332.72;5047383;28;8859;-72
2022/05/17 10:31:18;;;;;;;;;31.75;30.00;;;;;25.54;50.12;99335.22;5047867;28;8831;-72
2022/05/17 10:34:05;;;;;;;;;37.75;33.75;;;;;25.39;50.56;99325.53;5047491;28;8840;-68
2022/05/17 10:36:41;;;;;;;;;33.25;31.50;;;;;25.43;51.17;99327.06;5047641;28;8867;-71
2022/05/17 10:39:20;;;;;;;;;30.25;29.25;;;;;25.81;49.11;99315.63;5047615;28;8891;-70
2022/05/17 10:41:50;;;;;;;;;34.75;30.75;;;;;26.00;49.04;99316.13;5047667;28;8949;-71
2022/05/17 10:44:22;;;;;;;;;31.00;30.25;;;;;25.72;49.14;99318.91;5047406;28;8860;-72
2022/05/17 10:46:56;;;;;;;;;36.50;33.00;;;;;25.94;48.65;99319.22;5047188;28;8863;-72
2022/05/17 10:49:44;;;;;;;;;32.25;30.00;;;;;25.95;47.67;99312.91;5047537;28;8886;-73
2022/05/17 10:52:22;;;;;;;;;24.25;24.25;;;;;26.27;44.39;99304.47;5046890;28;8863;-72
2022/05/17 10:55:02;;;;;;;;;27.00;25.25;;;;;25.99;43.54;99314.44;5007644;28;8878;-72
2022/05/17 10:57:41;;;;;;;;;26.50;25.50;;;;;26.18;44.98;99303.31;5048599;28;9708;-73
2022/05/17 11:00:14;;;;;;;;;29.75;29.25;;;;;26.36;46.18;99305.69;5049664;28;8842;-71
2022/05/17 11:03:04;;;;;;;;;30.50;30.00;;;;;26.41;46.59;99292.84;5049620;28;8838;-70
2022/05/17 11:05:55;;;;;;;;;32.75;31.00;;;;;26.53;45.78;99288.44;5028332;28;8839;-71
2022/05/17 11:08:30;;;;;;;;;28.00;26.50;;;;;26.62;44.62;99287.81;5049493;28;8943;-68
2022/05/17 11:11:07;;;;;;;;;32.75;28.50;;;;;26.92;43.19;99287.44;5049414;28;8835;-70
2022/05/17 11:13:44;;;;;;;;;26.75;26.75;;;;;27.01;40.07;99286.78;5030421;28;8855;-70
2022/05/17 11:16:24;;;;;;;;;26.00;25.25;;;;;27.31;40.33;99280.13;5049093;28;8870;-72
2022/05/17 11:18:59;;;;;;;;;30.50;28.75;;;;;27.12;42.07;99277.94;5049100;28;8835;-68
2022/05/17 11:21:36;;;;;;;;;27.25;25.50;;;;;27.10;43.01;99276.34;5049068;28;8865;-70
2022/05/17 11:24:21;;;;;;;;;32.75;30.75;;;;;27.03;42.41;99279.50;5047775;28;8853;-70
2022/05/17 11:27:14;;;;;;;;;28.75;27.25;;;;;27.33;42.20;99280.88;5049128;28;9686;-72
2022/05/17 11:30:03;;;;;;;;;25.75;24.75;;;;;27.49;41.14;99275.25;5049394;28;8927;-73
2022/05/17 11:32:34;;;;;;;;;28.25;27.75;;;;;27.23;41.26;99278.00;5049146;28;8862;-70
2022/05/17 11:35:06;;;;;;;;;29.75;29.00;;;;;27.10;41.98;99273.69;5061253;28;9012;-74
2022/05/17 11:37:51;;;;;;;;;28.75;28.75;;;;;26.73;42.34;99276.34;5048653;28;9581;-70
2022/05/17 11:40:52;;;;;;;;;32.25;30.50;;;;;26.93;42.58;99264.19;5014464;28;8897;-73
2022/05/17 11:43:43;;;;;;;;;33.25;30.00;;;;;27.19;42.34;99265.81;5049681;28;8853;-73
2022/05/17 11:46:44;;;;;;;;;31.00;30.50;;;;;27.28;42.21;99253.63;5049122;28;8831;-71
2022/05/17 11:52:36;;;;;;;;;35.25;31.50;;;;;27.10;42.31;99244.22;4967674;28;8867;-76
2022/05/17 11:55:09;;;;;;;;;37.25;34.00;;;;;27.23;42.16;99242.34;4967953;28;8871;-67
2022/05/17 11:58:09;;;;;;;;;35.00;32.00;;;;;27.30;42.72;99240.13;4967739;28;8836;-68
2022/05/17 12:00:51;;;;;;;;;36.25;33.25;;;;;27.21;42.65;99231.75;4967545;28;8852;-68
2022/05/17 12:03:58;;;;;;;;;35.50;30.75;;;;;28.00;41.87;99215.13;4967653;28;8856;-71
2022/05/17 12:07:04;;;;;;;;;31.75;30.25;;;;;28.83;39.97;99203.16;4966897;28;8856;-71
2022/05/17 12:09:36;;;;;;;;;32.50;30.25;;;;;29.09;38.64;99206.38;4966146;28;8872;-70